• Join FlightAware (Why Join?)
  • Login
  • US Flag 
03:52PM EDT


 

Airport Tracker/Info


-or-


 

Live Flight TrackerFlight Track Log ✈ SWR638 ✈ 13-May-2013 ✈ LSZH / ZRH - LFPG / CDG

Flight Track Log - Related Links

Times and Time Zones

All times are in EDT time to prevent confusion due to time zone crossing. See the SWR638 flight status page for this flight to view local times or setup timezone preferences in your user account.

Time Position Orientation Groundspeed Altitude Reporting Facility
EDT Latitude Longitude Course Direction KTS MPH feet Rate Location/Type
07:22AM 47.4590 8.5420 276° West 158 182 1,600  Level FlightAware
07:23AM 47.4610 8.5090 275° West 152 175 3,300 2,820 Climbing FlightAware
07:23AM 47.4630 8.4840 277° West 150 173 4,200 1,740 Climbing FlightAware
07:23AM 47.4520 8.4610 235° Southwest 156 180 4,900 1,260 Climbing FlightAware
07:24AM 47.4320 8.4370 219° Southwest 189 217 5,500 1,200 Climbing FlightAware
07:24AM 47.4240 8.4190 237° Southwest 215 247 5,800 1,320 Climbing FlightAware
07:25AM 47.4080 8.3860 234° Southwest 252 290 6,400 1,920 Climbing FlightAware
07:25AM 47.3880 8.3410 237° Southwest 265 305 7,600 2,400 Climbing FlightAware
07:26AM 47.3750 8.3080 240° Southwest 269 310 8,600 2,820 Climbing FlightAware
07:26AM 47.3650 8.2780 244° Southwest 272 313 9,500 2,280 Climbing FlightAware
07:27AM 47.3370 8.1970 243° Southwest 310 357 10,900 1,380 Climbing FlightAware
07:27AM 47.3070 8.1150 242° Southwest 355 409 11,500 900 Climbing FlightAware
07:28AM 47.2890 8.0390 251° West 378 435 12,000 2,220 Climbing FlightAware
07:28AM 47.2950 7.9550 276° West 362 417 14,100 2,160 Climbing FlightAware
07:29AM 47.3050 7.8380 277° West 383 441 15,100 1,620 Climbing FlightAware
07:30AM 47.3130 7.7340 277° West 389 448 16,400 1,740 Climbing FlightAware
07:31AM 47.3160 7.5860 272° West 406 467 17,900 1,500 Climbing FlightAware
07:31AM 47.3160 7.4560 270° West 418 481 18,900 1,380 Climbing FlightAware
07:32AM 47.3110 7.3430 266° West 426 490 19,900 1,500 Climbing FlightAware
07:33AM 47.3040 7.2340 265° West 427 491 20,900 1,380 Climbing FlightAware
07:34AM 47.2960 7.1000 265° West 434 499 21,900 1,320 Climbing FlightAware
07:34AM 47.2890 6.9730 265° West 439 505 22,800 1,320 Climbing FlightAware
07:35AM 47.2810 6.8410 265° West 444 511 23,800 1,500 Climbing FlightAware
07:36AM 47.2730 6.7210 264° West 438 504 25,000 1,800 Climbing FlightAware
07:36AM 47.2660 6.5990 265° West 434 499 26,200 1,320 Climbing FlightAware
07:37AM 47.2570 6.4670 264° West 442 509 26,900 1,080 Climbing FlightAware
07:37AM 47.2610 6.3860 274° West 436 502 27,500 1,440 Climbing FlightAware
07:38AM 47.2910 6.2640 290° West 429 494 28,600 1,380 Climbing FlightAware
07:39AM 47.3190 6.1530 290° West 427 491 29,500 1,320 Climbing FlightAware
07:40AM 47.3510 6.0320 291° West 425 489 30,500 1,020 Climbing FlightAware
07:40AM 47.3790 5.9220 291° West 422 486 31,000 360 Climbing FlightAware
07:41AM 47.4080 5.8130 291° West 421 484 31,000  Level FlightAware
07:42AM 47.4410 5.6840 291° West 424 488 31,000  Level FlightAware
07:42AM 47.4680 5.5800 291° West 425 489 31,000  Level FlightAware
07:43AM 47.5070 5.4880 302° West 427 491 31,000 60 Level FlightAware
07:43AM 47.5424 5.4282 311° West 426 490 31,100  Climbing FlightAware ADS-B
07:44AM 47.5536 5.4096 312° West 426 490 31,000 -720 Descending FlightAware ADS-B
07:45AM 47.6240 5.2930 312° West 424 488 30,300 -960 Descending FlightAware
07:45AM 47.6810 5.1980 312° West 424 488 29,400 -1,440 Descending FlightAware
07:46AM 47.7490 5.0850 312° West 434 499 28,100 -1,740 Descending FlightAware
07:46AM 47.7858 5.0232 312° West 436 502 27,400 -1,560 Descending FlightAware ADS-B
07:47AM 47.8480 4.9180 311° West 439 505 26,200 -1,380 Descending FlightAware
07:48AM 47.9170 4.8030 312° West 431 496 25,100 -1,380 Descending FlightAware
07:49AM 47.9660 4.7200 311° West 428 493 24,200 -1,320 Descending FlightAware
07:50AM 48.0190 4.6290 311° West 424 488 23,300 -1,560 Descending FlightAware
07:50AM 48.0460 4.5838 312° West 424 488 22,800 -1,800 Descending FlightAware ADS-B
07:50AM 48.0830 4.5210 311° West 418 481 22,100 -1,500 Descending FlightAware
07:51AM 48.1122 4.4705 311° West 421 484 21,500 -1,560 Descending FlightAware ADS-B
07:51AM 48.1643 4.3814 311° West 411 473 20,500 -1,440 Descending FlightAware ADS-B
07:52AM 48.2061 4.3095 311° West 408 470 19,700 -1,440 Descending FlightAware ADS-B
07:52AM 48.2480 4.2373 311° West 401 461 18,900 -1,440 Descending FlightAware ADS-B
07:53AM 48.2841 4.1747 311° West 395 455 18,200 -1,440 Descending FlightAware ADS-B
07:54AM 48.3420 4.0740 311° West 392 451 17,000 -1,500 Descending FlightAware
07:54AM 48.3613 4.0409 311° West 389 448 16,600 -1,500 Descending FlightAware ADS-B
07:55AM 48.3930 3.9860 311° West 383 441 15,900 -1,500 Descending FlightAware
07:55AM 48.3998 3.9740 311° West 383 441 15,800 -1,500 Descending FlightAware ADS-B
07:55AM 48.4390 3.9057 311° West 376 433 15,000 -1,440 Descending FlightAware ADS-B
07:56AM 48.4756 3.8417 311° West 373 429 14,200 -1,500 Descending FlightAware ADS-B
07:56AM 48.5171 3.7688 311° West 362 417 13,300 -1,440 Descending FlightAware ADS-B
07:57AM 48.5406 3.7255 309° West 360 414 12,800 -1,500 Descending FlightAware ADS-B
07:57AM 48.5684 3.6618 303° West 357 411 12,000 -1,500 Descending FlightAware ADS-B
07:58AM 48.5952 3.5993 303° West 351 404 11,300 -1,500 Descending FlightAware ADS-B
07:58AM 48.6135 3.5638 308° West 347 399 10,800 -1,380 Descending FlightAware ADS-B
07:58AM 48.6299 3.5465 325° Northwest 342 394 10,600 -600 Descending FlightAware ADS-B
07:59AM 48.6782 3.5047 330° Northwest 303 349 10,300 -540 Descending FlightAware ADS-B
08:00AM 48.7365 3.4540 330° Northwest 277 319 9,800 -660 Descending FlightAware ADS-B
08:00AM 48.7720 3.4230 330° Northwest 265 305 9,300 -720 Descending FlightAware
08:01AM 48.7820 3.4150 332° Northwest 264 304 9,200 -1,200 Descending FlightAware
08:01AM 48.8085 3.3912 329° Northwest 270 311 8,800 -1,140 Descending FlightAware ADS-B
08:01AM 48.8332 3.3697 330° Northwest 272 313 8,500 -780 Descending FlightAware ADS-B
08:01AM 48.8507 3.3545 330° Northwest 274 315 8,300 -720 Descending FlightAware ADS-B
08:02AM 48.8721 3.3360 330° Northwest 273 314 8,100 -540 Descending FlightAware ADS-B
08:02AM 48.8887 3.3216 330° Northwest 271 312 8,000 -480 Descending FlightAware ADS-B
08:02AM 48.8994 3.3119 329° Northwest 269 310 7,900 -720 Descending FlightAware ADS-B
08:02AM 48.9078 3.3018 322° Northwest 264 304 7,800 -600 Descending FlightAware ADS-B
08:03AM 48.9199 3.2835 315° West 260 299 7,700 -600 Descending FlightAware ADS-B
08:03AM 48.9340 3.2612 314° West 259 298 7,500 -780 Descending FlightAware ADS-B
08:03AM 48.9467 3.2414 314° West 258 297 7,300 -840 Descending FlightAware ADS-B
08:03AM 48.9520 3.2318 310° West 256 295 7,200 -1,020 Descending FlightAware ADS-B
08:03AM 48.9598 3.2150 305° West 255 293 7,000 -960 Descending FlightAware ADS-B
08:04AM 48.9696 3.1924 303° West 254 292 6,800 -600 Descending FlightAware ADS-B
08:04AM 48.9800 3.1683 303° West 250 288 6,700 -540 Descending FlightAware ADS-B
08:04AM 48.9902 3.1443 303° West 250 288 6,500 -720 Descending FlightAware ADS-B
08:05AM 49.0023 3.1156 303° West 251 289 6,300 -900 Descending FlightAware ADS-B
08:05AM 49.0122 3.0915 302° West 247 284 6,000 -780 Descending FlightAware ADS-B
08:05AM 49.0211 3.0696 302° West 237 273 5,900 -420 Descending FlightAware ADS-B
08:05AM 49.0298 3.0483 302° West 229 264 5,800 -480 Descending FlightAware ADS-B
08:06AM 49.0470 2.9950 296° West 219 252 5,500 -540 Descending FlightAware
08:06AM 49.0470 2.9590 270° West 217 250 5,300 -780 Descending FlightAware ADS-B
08:07AM 49.0459 2.9326 266° West 217 250 5,000 -840 Descending FlightAware ADS-B
08:07AM 49.0445 2.9028 266° West 208 239 4,800 -840 Descending FlightAware ADS-B
08:07AM 49.0433 2.8800 265° West 193 222 4,500 -1,140 Descending FlightAware ADS-B
08:07AM 49.0423 2.8600 266° West 186 214 4,200 -1,260 Descending FlightAware ADS-B
08:08AM 49.0410 2.8350 265° West 183 211 3,800 -960 Descending FlightAware ADS-B
08:08AM 49.0387 2.7900 266° West 159 183 3,300 -900 Descending FlightAware ADS-B
08:09AM 49.0377 2.7707 265° West 155 178 3,000 -900 Descending FlightAware ADS-B
08:09AM 49.0368 2.7538 265° West 148 170 2,800 -780 Descending FlightAware ADS-B
08:09AM 49.0360 2.7378 266° West 145 167 2,600 -780 Descending FlightAware ADS-B
08:10AM 49.0351 2.7218 265° West 144 166 2,400 -840 Descending FlightAware ADS-B
08:10AM 49.0344 2.7079 266° West 148 170 2,200 -900 Descending FlightAware ADS-B
08:10AM 49.0340 2.7001 266° West 148 170 2,100 -840 Descending FlightAware ADS-B
08:10AM 49.0332 2.6839 266° West 144 166 1,900 -780 Descending FlightAware ADS-B
08:10AM 49.0324 2.6684 266° West 138 159 1,700 -780 Descending FlightAware ADS-B
08:11AM 49.0316 2.6540 265° West 127 146 1,500 -720 Descending FlightAware ADS-B
08:11AM 49.0307 2.6381 265° West 125 144 1,300 -600 Descending FlightAware ADS-B
08:11AM 49.0301 2.6254 266° West 125 144 1,200 -660 Descending FlightAware ADS-B
08:11AM 49.0294 2.6119 265° West 124 143 1,000 -840 Descending FlightAware ADS-B
08:12AM 49.0291 2.6064 265° West 126 145 900 -840 Descending FlightAware ADS-B
08:12AM 49.0283 2.5920 265° West 123 142 700 -780 Descending FlightAware ADS-B
08:12AM 49.0276 2.5786 265° West 121 139 500 -720 Descending FlightAware ADS-B
08:12AM 49.0271 2.5702 265° West 122 140 400 -720 Descending FlightAware ADS-B